Time;durP1;ratioP1;P1;durP2;ratioP2;P2;SDS_P1;SDS_P2;PMS_P1;PMS_P2;Temp;Humidity;BMP_temperature;BMP_pressure;BME280_temperature;BME280_humidity;BME280_pressure;Samples;Min_cycle;Max_cycle;Signal;HPM_P1;HPM_P2
2022/07/10 00:01:04;;;;;;;2.80;1.35;;;;;;;;;;5039486;28;20225;-59
2022/07/10 00:03:31;;;;;;;1.63;1.30;;;;;;;;;;5039416;28;20209;-59
2022/07/10 00:05:59;;;;;;;1.92;1.55;;;;;;;;;;5039122;28;20224;-59
2022/07/10 00:08:27;;;;;;;1.40;1.30;;;;;;;;;;5039217;28;20208;-59
2022/07/10 00:10:55;;;;;;;1.80;1.30;;;;;;;;;;5039210;28;20255;-59
2022/07/10 00:13:23;;;;;;;1.50;1.40;;;;;;;;;;5039641;28;20206;-58
2022/07/10 00:15:50;;;;;;;1.65;1.40;;;;;;;;;;5039036;28;20205;-59
2022/07/10 00:18:18;;;;;;;2.38;1.38;;;;;;;;;;5038322;28;20209;-59
2022/07/10 00:20:45;;;;;;;1.85;1.30;;;;;;;;;;5038805;28;20484;-59
2022/07/10 00:23:13;;;;;;;2.88;1.50;;;;;;;;;;5039265;28;20217;-58
2022/07/10 00:25:42;;;;;;;1.85;1.40;;;;;;;;;;5039393;28;20216;-59
2022/07/10 00:28:11;;;;;;;1.45;1.33;;;;;;;;;;5039232;28;20216;-58
2022/07/10 00:30:38;;;;;;;1.42;1.25;;;;;;;;;;5038821;28;20263;-58
2022/07/10 00:33:05;;;;;;;1.80;1.50;;;;;;;;;;5038813;28;20212;-58
2022/07/10 00:35:33;;;;;;;1.75;1.20;;;;;;;;;;5038508;28;20213;-58
2022/07/10 00:38:02;;;;;;;2.13;1.50;;;;;;;;;;5039272;28;20494;-59
2022/07/10 00:40:29;;;;;;;1.50;1.20;;;;;;;;;;5038407;28;20236;-59
2022/07/10 00:42:58;;;;;;;1.48;1.38;;;;;;;;;;5038417;28;20205;-59
2022/07/10 00:45:26;;;;;;;2.22;1.50;;;;;;;;;;5038733;28;20205;-58
2022/07/10 00:47:53;;;;;;;1.50;1.30;;;;;;;;;;5038745;28;20458;-58
2022/07/10 00:50:21;;;;;;;2.63;1.50;;;;;;;;;;5038865;28;20654;-58
2022/07/10 00:52:48;;;;;;;1.80;1.40;;;;;;;;;;5038898;28;20209;-58
2022/07/10 00:55:16;;;;;;;2.42;1.30;;;;;;;;;;5038907;28;20212;-58
2022/07/10 00:57:43;;;;;;;2.13;1.35;;;;;;;;;;5037998;28;20272;-58
2022/07/10 01:00:13;;;;;;;2.03;1.27;;;;;;;;;;5038406;28;20197;-59
2022/07/10 01:02:43;;;;;;;1.73;1.20;;;;;;;;;;5037870;28;20241;-59
2022/07/10 01:05:10;;;;;;;1.60;1.20;;;;;;;;;;5038412;28;20678;-58
2022/07/10 01:07:38;;;;;;;2.20;1.20;;;;;;;;;;5037655;28;20215;-59
2022/07/10 01:10:05;;;;;;;1.33;1.15;;;;;;;;;;5038497;28;20495;-59
2022/07/10 01:12:33;;;;;;;2.72;1.20;;;;;;;;;;5038100;28;20213;-58
2022/07/10 01:15:00;;;;;;;1.67;1.15;;;;;;;;;;5037851;28;20206;-59
2022/07/10 01:17:29;;;;;;;2.35;1.20;;;;;;;;;;5038182;28;20205;-59
2022/07/10 01:19:57;;;;;;;1.58;1.13;;;;;;;;;;5038632;28;20602;-59
2022/07/10 01:22:26;;;;;;;2.80;1.13;;;;;;;;;;5038386;28;20610;-58
2022/07/10 01:24:54;;;;;;;1.88;1.20;;;;;;;;;;5038549;28;20300;-58
2022/07/10 01:27:21;;;;;;;1.92;1.10;;;;;;;;;;5038216;28;20205;-59
2022/07/10 01:29:51;;;;;;;2.95;1.10;;;;;;;;;;5038238;28;20204;-58
2022/07/10 01:32:18;;;;;;;2.50;1.05;;;;;;;;;;5037925;28;20297;-58
2022/07/10 01:34:46;;;;;;;3.05;1.20;;;;;;;;;;5038293;28;20205;-59
2022/07/10 01:37:14;;;;;;;1.95;1.25;;;;;;;;;;5038107;28;20267;-59
2022/07/10 01:39:43;;;;;;;2.58;1.20;;;;;;;;;;5038039;28;20213;-58
2022/07/10 01:42:10;;;;;;;2.55;1.20;;;;;;;;;;5037750;28;20236;-59
2022/07/10 01:44:38;;;;;;;2.10;1.10;;;;;;;;;;5038163;28;20498;-59
2022/07/10 01:47:05;;;;;;;2.03;1.30;;;;;;;;;;5038138;28;20205;-59
2022/07/10 01:49:34;;;;;;;2.05;0.90;;;;;;;;;;5037810;28;20534;-58
2022/07/10 01:52:01;;;;;;;2.08;1.08;;;;;;;;;;5038175;28;20201;-59
2022/07/10 01:54:28;;;;;;;1.67;1.15;;;;;;;;;;5037687;28;20205;-59
2022/07/10 01:56:57;;;;;;;1.33;1.10;;;;;;;;;;5037862;28;20615;-58
2022/07/10 01:59:25;;;;;;;3.67;1.35;;;;;;;;;;5037948;28;20205;-59
2022/07/10 02:01:52;;;;;;;2.00;1.25;;;;;;;;;;5041159;28;20225;-58
2022/07/10 02:07:05;;;;;;;1.55;1.10;;;;;;;;;;5041487;28;20193;-59
2022/07/10 02:09:32;;;;;;;2.10;1.23;;;;;;;;;;5041854;28;20206;-58
2022/07/10 02:12:01;;;;;;;2.85;1.10;;;;;;;;;;5041729;28;20208;-59
2022/07/10 02:14:28;;;;;;;1.88;1.10;;;;;;;;;;5041395;28;20496;-59
2022/07/10 02:16:56;;;;;;;1.90;1.20;;;;;;;;;;5041612;28;20590;-59
2022/07/10 02:19:23;;;;;;;3.53;1.40;;;;;;;;;;5041587;28;20546;-59
2022/07/10 02:21:51;;;;;;;1.30;1.10;;;;;;;;;;5041536;28;20634;-59
2022/07/10 02:24:19;;;;;;;3.63;1.10;;;;;;;;;;5041587;28;20205;-59
2022/07/10 02:26:46;;;;;;;1.65;0.85;;;;;;;;;;5040832;28;20217;-59
2022/07/10 02:29:15;;;;;;;2.10;1.00;;;;;;;;;;5041591;28;20214;-59
2022/07/10 02:31:43;;;;;;;2.67;1.17;;;;;;;;;;5040889;28;20208;-58
2022/07/10 02:34:10;;;;;;;3.40;1.20;;;;;;;;;;5041362;28;20587;-58
2022/07/10 02:36:38;;;;;;;1.58;0.93;;;;;;;;;;5041474;28;20216;-59
2022/07/10 02:39:05;;;;;;;1.42;0.93;;;;;;;;;;5041639;28;20695;-59
2022/07/10 02:41:33;;;;;;;2.42;1.00;;;;;;;;;;5041456;28;20221;-59
2022/07/10 02:44:00;;;;;;;2.25;1.10;;;;;;;;;;5041211;28;20267;-58
2022/07/10 02:46:29;;;;;;;1.55;1.00;;;;;;;;;;5041350;28;20219;-60
2022/07/10 02:48:57;;;;;;;1.10;0.90;;;;;;;;;;5041243;28;20241;-59
2022/07/10 02:51:24;;;;;;;1.65;1.00;;;;;;;;;;5041098;28;20513;-59
2022/07/10 02:53:52;;;;;;;2.35;1.08;;;;;;;;;;5040971;28;20218;-59
2022/07/10 02:56:19;;;;;;;2.45;1.00;;;;;;;;;;5040830;28;20595;-59
2022/07/10 02:58:46;;;;;;;2.13;1.00;;;;;;;;;;5040963;28;20205;-59
2022/07/10 03:01:14;;;;;;;2.00;0.90;;;;;;;;;;5040703;28;20235;-59
2022/07/10 03:03:43;;;;;;;1.17;0.80;;;;;;;;;;5041065;28;20233;-59
2022/07/10 03:06:10;;;;;;;2.30;1.00;;;;;;;;;;5041305;28;20197;-59
2022/07/10 03:08:37;;;;;;;2.50;1.10;;;;;;;;;;5040839;28;20214;-59
2022/07/10 03:11:05;;;;;;;1.33;1.20;;;;;;;;;;5039926;28;20212;-58
2022/07/10 03:13:32;;;;;;;1.50;1.00;;;;;;;;;;5040366;28;20206;-58
2022/07/10 03:16:00;;;;;;;2.35;1.00;;;;;;;;;;5040372;28;20219;-59
2022/07/10 03:18:27;;;;;;;2.75;1.10;;;;;;;;;;5040549;28;20206;-58
2022/07/10 03:20:56;;;;;;;1.55;1.08;;;;;;;;;;5040052;28;20216;-58
2022/07/10 03:23:23;;;;;;;1.70;0.98;;;;;;;;;;5039440;28;20213;-58
2022/07/10 03:25:51;;;;;;;2.20;1.10;;;;;;;;;;5039534;28;20206;-58
2022/07/10 03:28:18;;;;;;;2.30;1.00;;;;;;;;;;5040021;28;20206;-58
2022/07/10 03:30:45;;;;;;;2.08;1.00;;;;;;;;;;5040155;28;20469;-58
2022/07/10 03:33:13;;;;;;;1.88;1.02;;;;;;;;;;5040082;28;20208;-59
2022/07/10 03:35:41;;;;;;;1.95;1.10;;;;;;;;;;5039935;28;20514;-58
2022/07/10 03:38:09;;;;;;;2.55;1.10;;;;;;;;;;5040090;28;20662;-58
2022/07/10 03:40:38;;;;;;;2.72;1.02;;;;;;;;;;5040238;28;20216;-58
2022/07/10 03:43:06;;;;;;;1.25;0.80;;;;;;;;;;5040016;28;20230;-59
2022/07/10 03:45:34;;;;;;;1.48;1.13;;;;;;;;;;5040081;28;20220;-58
2022/07/10 03:48:01;;;;;;;1.77;1.10;;;;;;;;;;5039679;28;20197;-58
2022/07/10 03:50:28;;;;;;;1.63;1.10;;;;;;;;;;5039932;28;20229;-59
2022/07/10 03:52:56;;;;;;;1.20;1.10;;;;;;;;;;5040077;28;20296;-59
2022/07/10 03:55:25;;;;;;;2.17;1.30;;;;;;;;;;5040317;28;20224;-58
2022/07/10 03:57:54;;;;;;;1.40;1.10;;;;;;;;;;5040110;28;20258;-59
2022/07/10 04:00:23;;;;;;;1.52;0.90;;;;;;;;;;5039947;28;20296;-59
2022/07/10 04:02:50;;;;;;;1.55;1.20;;;;;;;;;;5040080;28;20236;-59
2022/07/10 04:05:18;;;;;;;1.20;0.93;;;;;;;;;;5039281;28;20206;-59
2022/07/10 04:07:45;;;;;;;2.80;1.30;;;;;;;;;;5039485;28;20210;-60
2022/07/10 04:10:12;;;;;;;1.30;1.00;;;;;;;;;;5039458;28;20212;-59
2022/07/10 04:12:41;;;;;;;1.35;0.90;;;;;;;;;;5039807;28;20216;-59
2022/07/10 04:15:09;;;;;;;1.73;1.13;;;;;;;;;;5039528;28;20224;-59
2022/07/10 04:17:37;;;;;;;2.15;1.10;;;;;;;;;;5039275;28;20206;-60
2022/07/10 04:20:05;;;;;;;2.97;1.25;;;;;;;;;;5039696;28;20216;-60
2022/07/10 04:22:32;;;;;;;1.20;1.10;;;;;;;;;;5038370;28;20541;-59
2022/07/10 04:24:59;;;;;;;1.25;0.95;;;;;;;;;;5039093;28;20475;-59
2022/07/10 04:27:27;;;;;;;1.98;1.10;;;;;;;;;;5039756;28;20213;-59
2022/07/10 04:29:56;;;;;;;1.65;0.93;;;;;;;;;;5039158;28;20210;-59
2022/07/10 04:32:23;;;;;;;1.67;1.00;;;;;;;;;;5039381;28;20209;-58
2022/07/10 04:34:51;;;;;;;1.67;1.00;;;;;;;;;;5039101;28;20205;-58
2022/07/10 04:37:18;;;;;;;2.30;1.00;;;;;;;;;;5039330;28;20501;-58
2022/07/10 04:39:46;;;;;;;2.47;1.15;;;;;;;;;;5038420;28;20507;-59
2022/07/10 04:42:13;;;;;;;2.72;1.00;;;;;;;;;;5039039;28;20230;-59
2022/07/10 04:44:41;;;;;;;1.38;1.05;;;;;;;;;;5038846;28;20205;-59
2022/07/10 04:47:11;;;;;;;1.23;0.88;;;;;;;;;;5038937;28;20213;-59
2022/07/10 04:49:38;;;;;;;2.50;1.15;;;;;;;;;;5039011;28;20344;-59
2022/07/10 04:52:06;;;;;;;1.45;0.98;;;;;;;;;;5038620;28;20205;-58
2022/07/10 04:54:33;;;;;;;1.13;0.88;;;;;;;;;;5038426;28;20205;-59
2022/07/10 04:57:01;;;;;;;3.53;1.20;;;;;;;;;;5038863;28;20206;-59
2022/07/10 04:59:28;;;;;;;3.05;0.90;;;;;;;;;;5038652;28;20217;-58
2022/07/10 05:01:55;;;;;;;1.55;1.17;;;;;;;;;;5038662;28;20264;-58
2022/07/10 05:04:24;;;;;;;2.42;1.05;;;;;;;;;;5038165;28;20209;-59
2022/07/10 05:06:51;;;;;;;1.40;1.10;;;;;;;;;;5038387;28;20205;-58
2022/07/10 05:09:20;;;;;;;1.23;0.90;;;;;;;;;;5038133;28;20212;-59
2022/07/10 05:11:50;;;;;;;1.45;1.00;;;;;;;;;;5038416;28;20201;-58
2022/07/10 05:14:17;;;;;;;1.65;0.90;;;;;;;;;;5038170;28;20692;-59
2022/07/10 05:16:44;;;;;;;1.77;1.00;;;;;;;;;;5038119;28;20206;-59
2022/07/10 05:19:12;;;;;;;2.38;1.20;;;;;;;;;;5038168;28;20220;-60
2022/07/10 05:21:41;;;;;;;2.85;0.93;;;;;;;;;;5038701;28;20205;-59
2022/07/10 05:24:08;;;;;;;1.88;0.95;;;;;;;;;;5037989;28;20205;-59
2022/07/10 05:26:36;;;;;;;2.10;1.10;;;;;;;;;;5038232;28;20206;-59
2022/07/10 05:29:04;;;;;;;2.05;1.02;;;;;;;;;;5038347;28;20205;-59
2022/07/10 05:31:31;;;;;;;1.70;0.90;;;;;;;;;;5037775;28;20206;-59
2022/07/10 05:33:59;;;;;;;1.42;1.00;;;;;;;;;;5038005;28;20206;-59
2022/07/10 05:36:26;;;;;;;1.55;0.95;;;;;;;;;;5038068;28;20213;-59
2022/07/10 05:38:55;;;;;;;1.67;0.95;;;;;;;;;;5037949;28;20214;-60
2022/07/10 05:41:22;;;;;;;1.33;0.88;;;;;;;;;;5038125;28;20201;-60
2022/07/10 05:43:50;;;;;;;1.20;0.80;;;;;;;;;;5037893;28;20244;-59
2022/07/10 05:46:17;;;;;;;1.98;0.95;;;;;;;;;;5038138;28;20237;-58
2022/07/10 05:48:44;;;;;;;2.25;0.90;;;;;;;;;;5037468;28;20234;-59
2022/07/10 05:51:12;;;;;;;1.77;0.68;;;;;;;;;;5038110;28;20206;-60
2022/07/10 05:53:39;;;;;;;1.92;0.90;;;;;;;;;;5037659;28;20209;-60
2022/07/10 05:56:08;;;;;;;1.10;0.80;;;;;;;;;;5038030;28;20494;-59
2022/07/10 05:58:35;;;;;;;1.45;0.85;;;;;;;;;;5037852;28;20209;-59
2022/07/10 06:01:03;;;;;;;1.80;0.80;;;;;;;;;;5037818;28;20205;-59
2022/07/10 06:03:31;;;;;;;2.10;0.82;;;;;;;;;;5037697;28;20225;-59
2022/07/10 06:05:59;;;;;;;1.98;0.90;;;;;;;;;;5037689;28;20206;-59
2022/07/10 06:08:27;;;;;;;1.15;0.70;;;;;;;;;;5037526;28;20255;-58
2022/07/10 06:10:54;;;;;;;1.65;0.90;;;;;;;;;;5037725;28;20524;-59
2022/07/10 06:13:23;;;;;;;2.65;0.88;;;;;;;;;;5037768;28;20202;-60
2022/07/10 06:15:50;;;;;;;2.28;1.00;;;;;;;;;;5037823;28;20268;-59
2022/07/10 06:18:18;;;;;;;1.73;0.88;;;;;;;;;;5037227;28;20232;-59
2022/07/10 06:20:45;;;;;;;0.90;0.77;;;;;;;;;;5037364;28;20210;-60
2022/07/10 06:23:13;;;;;;;2.25;0.90;;;;;;;;;;5037018;28;20233;-60
2022/07/10 06:25:40;;;;;;;1.40;0.73;;;;;;;;;;5037870;28;20232;-60
2022/07/10 06:28:07;;;;;;;1.30;0.70;;;;;;;;;;5037166;28;20215;-60
2022/07/10 06:30:37;;;;;;;1.83;0.70;;;;;;;;;;5037150;28;20216;-59
2022/07/10 06:33:04;;;;;;;1.58;0.70;;;;;;;;;;5036988;28;20213;-60
2022/07/10 06:35:31;;;;;;;1.55;0.85;;;;;;;;;;5037350;28;20300;-60
2022/07/10 06:37:59;;;;;;;1.17;0.80;;;;;;;;;;5036724;28;20202;-60
2022/07/10 06:40:27;;;;;;;1.23;0.80;;;;;;;;;;5037280;28;20206;-60
2022/07/10 06:42:54;;;;;;;1.63;0.80;;;;;;;;;;5036422;28;20226;-59
2022/07/10 06:45:22;;;;;;;1.10;0.73;;;;;;;;;;5036899;28;20218;-59
2022/07/10 06:47:56;;;;;;;1.65;0.90;;;;;;;;;;5040347;28;20205;-60
2022/07/10 06:50:24;;;;;;;1.20;0.80;;;;;;;;;;5041118;28;20241;-59
2022/07/10 06:52:51;;;;;;;1.88;0.80;;;;;;;;;;5041070;28;20208;-60
2022/07/10 06:55:20;;;;;;;2.10;0.93;;;;;;;;;;5040798;28;20272;-60
2022/07/10 06:57:47;;;;;;;1.67;0.95;;;;;;;;;;5040925;28;20597;-60
2022/07/10 07:00:15;;;;;;;0.90;0.77;;;;;;;;;;5040476;28;20212;-60
2022/07/10 07:02:43;;;;;;;1.98;0.90;;;;;;;;;;5039964;28;20229;-59
2022/07/10 07:05:12;;;;;;;2.20;0.90;;;;;;;;;;5040615;28;20217;-59
2022/07/10 07:07:39;;;;;;;1.35;0.70;;;;;;;;;;5039980;28;20212;-60
2022/07/10 07:10:07;;;;;;;2.13;0.95;;;;;;;;;;5040543;28;20214;-60
2022/07/10 07:12:35;;;;;;;2.22;0.70;;;;;;;;;;5039805;28;20206;-60
2022/07/10 07:15:03;;;;;;;2.33;0.80;;;;;;;;;;5040100;28;20206;-60
2022/07/10 07:17:35;;;;;;;2.15;1.00;;;;;;;;;;5039595;28;20721;-60
2022/07/10 07:25:33;;;;;;;1.60;0.70;;;;;;;;;;5032411;28;20208;-59
2022/07/10 07:28:01;;;;;;;1.27;0.80;;;;;;;;;;5039523;28;20205;-59
2022/07/10 07:30:28;;;;;;;1.70;0.77;;;;;;;;;;5039972;28;20546;-60
2022/07/10 07:32:56;;;;;;;1.58;0.80;;;;;;;;;;5039737;28;20202;-60
2022/07/10 07:35:23;;;;;;;2.35;0.80;;;;;;;;;;5039390;28;20568;-59
2022/07/10 07:37:52;;;;;;;2.17;0.80;;;;;;;;;;5039489;28;20213;-60
2022/07/10 07:40:22;;;;;;;3.20;0.93;;;;;;;;;;5039729;28;20201;-60
2022/07/10 07:42:49;;;;;;;1.45;0.80;;;;;;;;;;5039038;28;20226;-60
2022/07/10 07:45:17;;;;;;;1.75;0.70;;;;;;;;;;5039202;28;20206;-59
2022/07/10 07:47:45;;;;;;;1.42;0.68;;;;;;;;;;5038765;28;20210;-60
2022/07/10 07:50:13;;;;;;;1.80;0.85;;;;;;;;;;5037806;28;20322;-60
2022/07/10 07:52:40;;;;;;;0.80;0.60;;;;;;;;;;5038914;28;20212;-60
2022/07/10 07:55:10;;;;;;;2.63;0.77;;;;;;;;;;5039222;28;20205;-60
2022/07/10 07:57:38;;;;;;;1.23;0.70;;;;;;;;;;5038452;28;20210;-60
2022/07/10 08:00:06;;;;;;;1.35;0.85;;;;;;;;;;5039083;28;20210;-60
2022/07/10 08:02:34;;;;;;;2.13;0.90;;;;;;;;;;5037377;28;20202;-60
2022/07/10 08:05:01;;;;;;;1.27;0.80;;;;;;;;;;5038285;28;20201;-60
2022/07/10 08:07:35;;;;;;;2.00;0.75;;;;;;;;;;5038159;28;20202;-60
2022/07/10 08:10:02;;;;;;;1.55;0.75;;;;;;;;;;5038535;28;20638;-60
2022/07/10 08:12:31;;;;;;;1.67;0.70;;;;;;;;;;5038656;28;20206;-60
2022/07/10 08:14:59;;;;;;;1.77;0.60;;;;;;;;;;5038468;28;20212;-60
2022/07/10 08:17:26;;;;;;;2.25;0.82;;;;;;;;;;5058130;28;20496;-60
2022/07/10 08:19:55;;;;;;;1.75;0.75;;;;;;;;;;5057761;28;20208;-59
2022/07/10 08:22:22;;;;;;;1.00;0.63;;;;;;;;;;5058311;28;20205;-59
2022/07/10 08:24:49;;;;;;;1.35;0.65;;;;;;;;;;5058261;28;20258;-60
2022/07/10 08:27:17;;;;;;;1.92;0.68;;;;;;;;;;5058462;28;20205;-60
2022/07/10 08:29:45;;;;;;;1.10;0.60;;;;;;;;;;5058043;28;20220;-59
2022/07/10 08:32:13;;;;;;;1.33;0.60;;;;;;;;;;5057685;28;20621;-59
2022/07/10 08:34:41;;;;;;;1.85;0.63;;;;;;;;;;5057820;28;20197;-60
2022/07/10 08:37:08;;;;;;;0.95;0.50;;;;;;;;;;5056980;28;20205;-60
2022/07/10 08:39:35;;;;;;;1.40;0.70;;;;;;;;;;5057394;28;20205;-60
2022/07/10 08:42:03;;;;;;;1.23;0.80;;;;;;;;;;5057574;28;20213;-59
2022/07/10 08:44:32;;;;;;;1.63;0.70;;;;;;;;;;5057415;28;20232;-60
2022/07/10 08:47:01;;;;;;;1.63;0.70;;;;;;;;;;5056531;28;20500;-60
2022/07/10 08:49:30;;;;;;;1.30;0.70;;;;;;;;;;5056780;28;20243;-59
2022/07/10 08:52:00;;;;;;;1.23;0.60;;;;;;;;;;5056822;28;20232;-60
2022/07/10 08:54:29;;;;;;;0.98;0.70;;;;;;;;;;5057873;28;20263;-60
2022/07/10 08:56:57;;;;;;;1.40;0.50;;;;;;;;;;5057033;28;20205;-59
2022/07/10 08:59:25;;;;;;;1.40;0.63;;;;;;;;;;5057201;28;20205;-60
2022/07/10 09:01:53;;;;;;;0.88;0.50;;;;;;;;;;5056950;28;20197;-59
2022/07/10 09:04:23;;;;;;;1.50;0.77;;;;;;;;;;5057265;28;20220;-60
2022/07/10 09:06:50;;;;;;;2.15;0.68;;;;;;;;;;5057586;28;20270;-59
2022/07/10 09:09:18;;;;;;;1.42;0.80;;;;;;;;;;5056778;28;20219;-59
2022/07/10 09:11:46;;;;;;;1.48;0.75;;;;;;;;;;5056558;28;20208;-60
2022/07/10 09:14:16;;;;;;;1.08;0.77;;;;;;;;;;5056981;28;20213;-60
2022/07/10 09:16:45;;;;;;;1.95;0.73;;;;;;;;;;5057146;28;20213;-59
2022/07/10 09:19:19;;;;;;;0.85;0.60;;;;;;;;;;5056973;28;20205;-59
2022/07/10 09:21:49;;;;;;;1.05;0.60;;;;;;;;;;5057879;28;20269;-60
2022/07/10 09:24:19;;;;;;;1.67;0.68;;;;;;;;;;5057430;28;20279;-59
2022/07/10 09:27:00;;;;;;;0.98;0.60;;;;;;;;;;5056615;28;20240;-59
2022/07/10 09:29:27;;;;;;;1.20;0.70;;;;;;;;;;5056727;28;20469;-60
2022/07/10 09:31:55;;;;;;;1.65;0.65;;;;;;;;;;5057007;28;20555;-60
2022/07/10 09:34:36;;;;;;;1.58;0.85;;;;;;;;;;5057141;28;20578;-59
2022/07/10 09:37:18;;;;;;;1.60;0.90;;;;;;;;;;5056863;28;20205;-59
2022/07/10 09:39:54;;;;;;;0.80;0.70;;;;;;;;;;5056053;28;20351;-58
2022/07/10 09:42:31;;;;;;;1.63;0.80;;;;;;;;;;5057590;28;20534;-59
2022/07/10 09:45:18;;;;;;;0.93;0.70;;;;;;;;;;5055408;28;20239;-59
2022/07/10 09:47:46;;;;;;;0.95;0.63;;;;;;;;;;5056834;28;20212;-59
2022/07/10 09:50:27;;;;;;;1.85;0.77;;;;;;;;;;5056223;28;20520;-59
2022/07/10 09:52:56;;;;;;;0.90;0.50;;;;;;;;;;5055640;28;20212;-59
2022/07/10 09:55:29;;;;;;;1.40;0.60;;;;;;;;;;5056009;28;20593;-59
2022/07/10 09:57:57;;;;;;;3.58;0.70;;;;;;;;;;5056491;28;20244;-60
2022/07/10 10:00:26;;;;;;;1.38;0.70;;;;;;;;;;5057055;28;20299;-59
2022/07/10 10:02:56;;;;;;;1.60;0.73;;;;;;;;;;5056483;28;20204;-59
2022/07/10 10:05:27;;;;;;;1.40;0.70;;;;;;;;;;5055370;28;20224;-59
2022/07/10 10:07:55;;;;;;;1.02;0.70;;;;;;;;;;5056175;28;20205;-60
2022/07/10 10:10:23;;;;;;;2.00;0.70;;;;;;;;;;5056181;28;20205;-59
2022/07/10 10:12:56;;;;;;;2.05;0.80;;;;;;;;;;5056037;28;20205;-59
2022/07/10 10:15:25;;;;;;;2.10;0.63;;;;;;;;;;5057175;28;20608;-59
2022/07/10 10:17:53;;;;;;;0.77;0.50;;;;;;;;;;5055923;28;20204;-59
2022/07/10 10:20:41;;;;;;;1.77;0.60;;;;;;;;;;5055575;28;20292;-59
2022/07/10 10:23:12;;;;;;;1.23;0.60;;;;;;;;;;5059314;28;20208;-60
2022/07/10 10:25:40;;;;;;;1.25;0.65;;;;;;;;;;5060216;28;20254;-60
2022/07/10 10:28:10;;;;;;;1.27;0.60;;;;;;;;;;5059528;28;20205;-60
2022/07/10 10:30:39;;;;;;;1.30;0.75;;;;;;;;;;5059718;28;20215;-60
2022/07/10 10:33:21;;;;;;;1.48;0.57;;;;;;;;;;5060025;28;20216;-62
2022/07/10 10:35:48;;;;;;;0.60;0.60;;;;;;;;;;5059801;28;20205;-60
2022/07/10 10:38:16;;;;;;;0.95;0.68;;;;;;;;;;5058931;28;20502;-60
2022/07/10 10:40:44;;;;;;;2.47;0.77;;;;;;;;;;5060272;28;20205;-60
2022/07/10 10:43:19;;;;;;;4.70;0.60;;;;;;;;;;5059687;28;20209;-60
2022/07/10 10:45:46;;;;;;;2.95;0.68;;;;;;;;;;5059750;28;20347;-60
2022/07/10 10:48:15;;;;;;;5.05;1.00;;;;;;;;;;5059615;28;20489;-60
2022/07/10 10:50:43;;;;;;;2.67;0.70;;;;;;;;;;5058586;28;20306;-60
2022/07/10 10:53:17;;;;;;;2.85;0.73;;;;;;;;;;5057642;28;20201;-60
2022/07/10 10:56:05;;;;;;;3.90;0.80;;;;;;;;;;5042745;28;20228;-60
2022/07/10 10:58:39;;;;;;;2.13;0.88;;;;;;;;;;5039422;28;20205;-60
2022/07/10 11:01:07;;;;;;;2.78;0.60;;;;;;;;;;5039721;28;20205;-59
2022/07/10 11:03:34;;;;;;;3.28;0.80;;;;;;;;;;5043752;28;20690;-60
2022/07/10 11:06:04;;;;;;;0.93;0.68;;;;;;;;;;5054452;28;20201;-60
2022/07/10 11:08:39;;;;;;;3.67;0.75;;;;;;;;;;5059429;28;20232;-60
2022/07/10 11:11:25;;;;;;;2.80;0.70;;;;;;;;;;5059374;28;20200;-59
2022/07/10 11:13:58;;;;;;;1.50;0.75;;;;;;;;;;5045085;28;20198;-59
2022/07/10 11:16:25;;;;;;;1.73;0.45;;;;;;;;;;5039526;28;20209;-60
2022/07/10 11:18:54;;;;;;;2.72;0.70;;;;;;;;;;5039003;28;20205;-59
2022/07/10 11:21:24;;;;;;;2.10;0.50;;;;;;;;;;5038738;28;20205;-59
2022/07/10 11:23:58;;;;;;;2.17;0.85;;;;;;;;;;5052005;28;20531;-60
2022/07/10 11:26:31;;;;;;;1.35;0.70;;;;;;;;;;5057448;28;20203;-60
2022/07/10 11:29:01;;;;;;;2.35;0.68;;;;;;;;;;5058670;28;20220;-60
2022/07/10 11:31:31;;;;;;;2.03;0.68;;;;;;;;;;5058058;28;20211;-60
2022/07/10 11:33:58;;;;;;;2.05;0.60;;;;;;;;;;5057939;28;20309;-60
2022/07/10 11:36:28;;;;;;;3.00;0.93;;;;;;;;;;5043450;28;20202;-61
2022/07/10 11:38:59;;;;;;;2.25;0.65;;;;;;;;;;5038521;28;20205;-59
2022/07/10 11:41:27;;;;;;;1.58;0.50;;;;;;;;;;5038875;28;20258;-59
2022/07/10 11:43:55;;;;;;;1.80;0.60;;;;;;;;;;5038501;28;20229;-59
2022/07/10 11:46:24;;;;;;;1.17;0.60;;;;;;;;;;5038191;28;20236;-59
2022/07/10 11:48:54;;;;;;;1.92;0.82;;;;;;;;;;5038738;28;20240;-59
2022/07/10 11:51:25;;;;;;;2.63;0.65;;;;;;;;;;5057759;28;20579;-59
2022/07/10 12:30:01;;;;;;;2.70;0.60;;;;;;;;;;5113550;27;20588;-59
2022/07/10 12:32:29;;;;;;;2.95;0.68;;;;;;;;;;5114694;28;20207;-59
2022/07/10 12:35:00;;;;;;;2.47;0.60;;;;;;;;;;5130197;28;20198;-59
2022/07/10 12:37:28;;;;;;;2.05;0.47;;;;;;;;;;5134211;28;20226;-58
2022/07/10 12:39:56;;;;;;;2.83;0.68;;;;;;;;;;5134865;28;20202;-59
2022/07/10 12:42:27;;;;;;;1.73;0.63;;;;;;;;;;5134703;28;20202;-59
2022/07/10 12:44:56;;;;;;;1.25;0.70;;;;;;;;;;5133950;28;20194;-58
2022/07/10 12:47:24;;;;;;;2.20;0.55;;;;;;;;;;5133033;28;20198;-58
2022/07/10 12:49:59;;;;;;;2.72;0.73;;;;;;;;;;5133803;28;20232;-59
2022/07/10 12:52:27;;;;;;;1.52;0.70;;;;;;;;;;5134058;28;20236;-59
2022/07/10 12:55:09;;;;;;;1.20;0.65;;;;;;;;;;5117461;28;20199;-59
2022/07/10 12:57:46;;;;;;;1.50;0.60;;;;;;;;;;5112127;28;20262;-58
2022/07/10 13:00:18;;;;;;;1.08;0.43;;;;;;;;;;5096754;28;20200;-58
2022/07/10 13:02:49;;;;;;;1.73;0.70;;;;;;;;;;5092920;28;20204;-59
2022/07/10 13:05:26;;;;;;;2.58;0.65;;;;;;;;;;5092058;28;20204;-59
2022/07/10 13:07:54;;;;;;;2.33;0.70;;;;;;;;;;5091923;28;20199;-59
2022/07/10 13:10:21;;;;;;;1.20;0.70;;;;;;;;;;5092561;28;20203;-58
2022/07/10 13:12:49;;;;;;;3.00;0.68;;;;;;;;;;5093027;28;20214;-58
2022/07/10 13:15:21;;;;;;;1.30;0.73;;;;;;;;;;5092769;28;20204;-59
2022/07/10 13:17:50;;;;;;;1.13;0.80;;;;;;;;;;5092616;28;20675;-59
2022/07/10 13:20:18;;;;;;;1.77;0.60;;;;;;;;;;5092590;28;20254;-59
2022/07/10 13:22:45;;;;;;;0.70;0.50;;;;;;;;;;5092977;28;20237;-59
2022/07/10 13:25:12;;;;;;;1.58;0.70;;;;;;;;;;5092363;28;20212;-59
2022/07/10 13:27:41;;;;;;;1.80;0.60;;;;;;;;;;5093123;28;20228;-59
2022/07/10 13:30:09;;;;;;;1.15;0.65;;;;;;;;;;5082760;28;20666;-59
2022/07/10 13:32:38;;;;;;;0.80;0.70;;;;;;;;;;5079444;28;20678;-58
2022/07/10 13:35:06;;;;;;;0.93;0.50;;;;;;;;;;5078654;28;20209;-59
2022/07/10 13:37:33;;;;;;;1.67;0.60;;;;;;;;;;5078833;28;20201;-59
2022/07/10 13:40:01;;;;;;;0.88;0.57;;;;;;;;;;5079423;28;20214;-58
2022/07/10 13:42:29;;;;;;;0.80;0.60;;;;;;;;;;5078664;28;20203;-59
2022/07/10 13:44:56;;;;;;;1.48;0.60;;;;;;;;;;5078921;28;20204;-59
2022/07/10 13:47:23;;;;;;;2.13;0.80;;;;;;;;;;5079277;28;20565;-58
2022/07/10 13:49:52;;;;;;;0.70;0.50;;;;;;;;;;5079288;28;20230;-59
2022/07/10 13:52:19;;;;;;;0.98;0.55;;;;;;;;;;5078828;28;20215;-58
2022/07/10 13:54:47;;;;;;;0.65;0.57;;;;;;;;;;5078324;28;20283;-59
2022/07/10 13:57:15;;;;;;;1.45;0.70;;;;;;;;;;5078793;28;20323;-59
2022/07/10 13:59:45;;;;;;;1.58;0.90;;;;;;;;;;5077798;28;20262;-58
2022/07/10 14:02:12;;;;;;;0.88;0.77;;;;;;;;;;5078176;28;20208;-59
2022/07/10 14:18:46;;;;;;;0.55;0.50;;;;;;;;;;5113594;27;20543;-58
2022/07/10 14:21:14;;;;;;;0.70;0.57;;;;;;;;;;5113381;28;20207;-58
2022/07/10 14:23:43;;;;;;;1.48;0.70;;;;;;;;;;5113608;28;20191;-58
2022/07/10 14:26:12;;;;;;;1.20;0.60;;;;;;;;;;5113763;28;20233;-58
2022/07/10 14:42:39;;;;;;;1.42;0.70;;;;;;;;;;5105088;27;1456899;-58
2022/07/10 14:45:07;;;;;;;0.98;0.60;;;;;;;;;;5134609;28;20198;-59
2022/07/10 14:47:34;;;;;;;1.73;0.60;;;;;;;;;;5133969;28;20211;-58
2022/07/10 14:50:02;;;;;;;0.60;0.55;;;;;;;;;;5134837;28;20227;-58
2022/07/10 14:52:31;;;;;;;0.98;0.80;;;;;;;;;;5134251;28;20202;-59
2022/07/10 14:55:01;;;;;;;0.68;0.50;;;;;;;;;;5134685;28;20237;-59
2022/07/10 14:57:29;;;;;;;1.17;0.57;;;;;;;;;;5134838;28;20202;-59
2022/07/10 14:59:58;;;;;;;1.52;0.70;;;;;;;;;;5133576;28;20267;-59
2022/07/10 15:02:25;;;;;;;1.20;0.60;;;;;;;;;;5134542;28;20664;-59
2022/07/10 15:04:53;;;;;;;1.67;0.68;;;;;;;;;;5134478;28;20203;-60
2022/07/10 15:07:21;;;;;;;1.55;0.70;;;;;;;;;;5134060;28;20206;-59
2022/07/10 15:09:48;;;;;;;1.63;0.73;;;;;;;;;;5134585;28;20529;-58
2022/07/10 15:12:16;;;;;;;0.90;0.60;;;;;;;;;;5133813;28;20218;-59
2022/07/10 15:14:44;;;;;;;1.38;0.70;;;;;;;;;;5133599;28;20198;-58
2022/07/10 15:17:13;;;;;;;1.10;0.60;;;;;;;;;;5133906;28;20259;-59
2022/07/10 15:19:40;;;;;;;1.05;0.70;;;;;;;;;;5134421;28;20210;-59
2022/07/10 15:22:08;;;;;;;1.42;0.88;;;;;;;;;;5134026;28;20198;-58
2022/07/10 15:24:35;;;;;;;0.82;0.63;;;;;;;;;;5133767;28;20640;-58
2022/07/10 15:27:03;;;;;;;2.15;0.70;;;;;;;;;;5133045;28;20253;-60
2022/07/10 15:29:30;;;;;;;1.33;0.68;;;;;;;;;;5132864;28;20261;-60
2022/07/10 15:31:58;;;;;;;0.50;0.47;;;;;;;;;;5133042;28;20808;-59
2022/07/10 15:34:28;;;;;;;1.25;0.70;;;;;;;;;;5133166;28;20225;-59
2022/07/10 15:36:55;;;;;;;4.10;0.73;;;;;;;;;;5133381;28;20470;-59
2022/07/10 15:39:24;;;;;;;1.50;0.70;;;;;;;;;;5133608;28;20264;-59
2022/07/10 15:41:51;;;;;;;1.83;0.80;;;;;;;;;;5119903;28;20229;-59
2022/07/10 15:44:19;;;;;;;2.08;0.70;;;;;;;;;;5098191;28;20200;-59
2022/07/10 15:46:46;;;;;;;2.60;1.00;;;;;;;;;;5098922;28;20204;-59
2022/07/10 15:49:14;;;;;;;2.53;0.75;;;;;;;;;;5105556;28;20198;-60
2022/07/10 15:51:43;;;;;;;1.05;0.60;;;;;;;;;;5118561;28;20321;-58
2022/07/10 15:54:11;;;;;;;3.70;0.93;;;;;;;;;;5118382;28;20207;-59
2022/07/10 15:56:39;;;;;;;1.88;0.80;;;;;;;;;;5118325;28;20203;-59
2022/07/10 15:59:06;;;;;;;1.20;0.75;;;;;;;;;;5099866;28;20218;-59
2022/07/10 16:01:35;;;;;;;1.73;0.70;;;;;;;;;;5097983;28;20227;-59
2022/07/10 16:04:02;;;;;;;1.48;0.60;;;;;;;;;;5098265;28;20196;-58